sensor_id;sensor_type;location;lat;lon;timestamp;temperature;humidity
51867;DHT22;52862;52.504;13.480;2024-01-30T00:01:52;3.30;99.90
51867;DHT22;52862;52.504;13.480;2024-01-30T00:04:19;3.30;99.90
51867;DHT22;52862;52.504;13.480;2024-01-30T00:06:47;3.30;99.90
51867;DHT22;52862;52.504;13.480;2024-01-30T00:09:14;3.20;99.90
51867;DHT22;52862;52.504;13.480;2024-01-30T00:11:41;3.70;99.90
51867;DHT22;52862;52.504;13.480;2024-01-30T00:14:08;3.20;99.90
51867;DHT22;52862;52.504;13.480;2024-01-30T00:16:34;3.20;99.90
51867;DHT22;52862;52.504;13.480;2024-01-30T00:19:01;3.10;99.90
51867;DHT22;52862;52.504;13.480;2024-01-30T00:21:28;3.10;99.90
51867;DHT22;52862;52.504;13.480;2024-01-30T00:23:56;3.10;99.90
51867;DHT22;52862;52.504;13.480;2024-01-30T00:26:23;3.10;99.90
51867;DHT22;52862;52.504;13.480;2024-01-30T00:28:49;3.10;99.90
51867;DHT22;52862;52.504;13.480;2024-01-30T00:31:16;2.70;99.90
51867;DHT22;52862;52.504;13.480;2024-01-30T00:33:43;3.00;99.90
51867;DHT22;52862;52.504;13.480;2024-01-30T00:36:10;3.00;99.90
51867;DHT22;52862;52.504;13.480;2024-01-30T00:38:37;2.70;99.90
51867;DHT22;52862;52.504;13.480;2024-01-30T00:41:04;2.90;99.90
51867;DHT22;52862;52.504;13.480;2024-01-30T00:43:31;3.00;99.90
51867;DHT22;52862;52.504;13.480;2024-01-30T00:45:58;2.90;99.90
51867;DHT22;52862;52.504;13.480;2024-01-30T00:48:25;3.40;99.90
51867;DHT22;52862;52.504;13.480;2024-01-30T00:50:52;2.90;99.90
51867;DHT22;52862;52.504;13.480;2024-01-30T00:53:19;2.90;99.90
51867;DHT22;52862;52.504;13.480;2024-01-30T00:55:46;2.80;99.90
51867;DHT22;52862;52.504;13.480;2024-01-30T00:58:13;2.70;99.90
51867;DHT22;52862;52.504;13.480;2024-01-30T01:00:40;2.80;99.90
51867;DHT22;52862;52.504;13.480;2024-01-30T01:03:07;2.70;99.90
51867;DHT22;52862;52.504;13.480;2024-01-30T01:05:33;2.80;99.90
51867;DHT22;52862;52.504;13.480;2024-01-30T01:08:00;2.70;99.90
51867;DHT22;52862;52.504;13.480;2024-01-30T01:10:27;2.70;99.90
51867;DHT22;52862;52.504;13.480;2024-01-30T01:12:54;3.10;99.90
51867;DHT22;52862;52.504;13.480;2024-01-30T01:15:22;2.90;99.90
51867;DHT22;52862;52.504;13.480;2024-01-30T01:17:49;2.70;99.90
51867;DHT22;52862;52.504;13.480;2024-01-30T01:20:16;2.80;99.90
51867;DHT22;52862;52.504;13.480;2024-01-30T01:22:42;2.60;99.90
51867;DHT22;52862;52.504;13.480;2024-01-30T01:25:09;2.60;99.90
51867;DHT22;52862;52.504;13.480;2024-01-30T01:27:36;2.70;99.90
51867;DHT22;52862;52.504;13.480;2024-01-30T01:30:08;2.70;99.90
51867;DHT22;52862;52.504;13.480;2024-01-30T01:32:36;5.50;99.90
51867;DHT22;52862;52.504;13.480;2024-01-30T01:35:04;2.70;99.90
51867;DHT22;52862;52.504;13.480;2024-01-30T01:37:32;2.70;99.90
51867;DHT22;52862;52.504;13.480;2024-01-30T01:39:59;2.60;99.90
51867;DHT22;52862;52.504;13.480;2024-01-30T01:42:26;2.50;99.90
51867;DHT22;52862;52.504;13.480;2024-01-30T01:44:55;2.70;99.90
51867;DHT22;52862;52.504;13.480;2024-01-30T01:49:50;2.60;99.90
51867;DHT22;52862;52.504;13.480;2024-01-30T01:52:17;2.60;99.90
51867;DHT22;52862;52.504;13.480;2024-01-30T01:54:44;2.30;99.90
51867;DHT22;52862;52.504;13.480;2024-01-30T01:57:11;2.80;99.90
51867;DHT22;52862;52.504;13.480;2024-01-30T01:59:38;2.60;99.90
51867;DHT22;52862;52.504;13.480;2024-01-30T02:02:07;2.70;99.90
51867;DHT22;52862;52.504;13.480;2024-01-30T02:04:37;2.50;99.90
51867;DHT22;52862;52.504;13.480;2024-01-30T02:07:04;2.60;99.90
51867;DHT22;52862;52.504;13.480;2024-01-30T02:11:59;2.40;99.90
51867;DHT22;52862;52.504;13.480;2024-01-30T02:14:26;2.30;99.90
51867;DHT22;52862;52.504;13.480;2024-01-30T02:16:57;2.40;99.90
51867;DHT22;52862;52.504;13.480;2024-01-30T02:19:23;2.30;99.90
51867;DHT22;52862;52.504;13.480;2024-01-30T02:21:51;2.40;99.90
51867;DHT22;52862;52.504;13.480;2024-01-30T02:24:19;2.40;99.90
51867;DHT22;52862;52.504;13.480;2024-01-30T02:26:45;2.40;99.90
51867;DHT22;52862;52.504;13.480;2024-01-30T02:29:12;2.30;99.90
51867;DHT22;52862;52.504;13.480;2024-01-30T02:31:39;2.40;99.90
51867;DHT22;52862;52.504;13.480;2024-01-30T02:34:06;2.40;99.90
51867;DHT22;52862;52.504;13.480;2024-01-30T02:36:33;2.40;99.90
51867;DHT22;52862;52.504;13.480;2024-01-30T02:39:02;2.50;99.90
51867;DHT22;52862;52.504;13.480;2024-01-30T02:43:56;2.40;99.90
51867;DHT22;52862;52.504;13.480;2024-01-30T02:46:23;2.40;99.90
51867;DHT22;52862;52.504;13.480;2024-01-30T02:48:51;2.50;99.90
51867;DHT22;52862;52.504;13.480;2024-01-30T02:51:17;2.80;99.90
51867;DHT22;52862;52.504;13.480;2024-01-30T02:53:44;2.40;99.90
51867;DHT22;52862;52.504;13.480;2024-01-30T02:56:12;2.70;99.90
51867;DHT22;52862;52.504;13.480;2024-01-30T02:58:39;2.50;99.90
51867;DHT22;52862;52.504;13.480;2024-01-30T03:01:06;2.40;99.90
51867;DHT22;52862;52.504;13.480;2024-01-30T03:03:33;2.40;99.90
51867;DHT22;52862;52.504;13.480;2024-01-30T03:06:02;2.40;99.90
51867;DHT22;52862;52.504;13.480;2024-01-30T03:08:29;2.40;99.90
51867;DHT22;52862;52.504;13.480;2024-01-30T03:10:56;2.40;99.90
51867;DHT22;52862;52.504;13.480;2024-01-30T03:13:23;2.40;99.90
51867;DHT22;52862;52.504;13.480;2024-01-30T03:15:51;2.40;99.90
51867;DHT22;52862;52.504;13.480;2024-01-30T03:18:18;2.30;99.90
51867;DHT22;52862;52.504;13.480;2024-01-30T03:20:45;2.40;99.90
51867;DHT22;52862;52.504;13.480;2024-01-30T03:23:11;2.30;99.90
51867;DHT22;52862;52.504;13.480;2024-01-30T03:25:38;2.30;99.90
51867;DHT22;52862;52.504;13.480;2024-01-30T03:28:05;2.30;99.90
51867;DHT22;52862;52.504;13.480;2024-01-30T03:30:34;2.30;99.90
51867;DHT22;52862;52.504;13.480;2024-01-30T03:33:01;2.60;99.90
51867;DHT22;52862;52.504;13.480;2024-01-30T03:35:27;2.40;99.90
51867;DHT22;52862;52.504;13.480;2024-01-30T03:37:54;2.40;99.90
51867;DHT22;52862;52.504;13.480;2024-01-30T03:40:21;2.40;99.90
51867;DHT22;52862;52.504;13.480;2024-01-30T03:42:48;2.40;99.90
51867;DHT22;52862;52.504;13.480;2024-01-30T03:45:15;2.40;99.90
51867;DHT22;52862;52.504;13.480;2024-01-30T03:47:44;2.00;99.90
51867;DHT22;52862;52.504;13.480;2024-01-30T03:50:11;2.30;99.90
51867;DHT22;52862;52.504;13.480;2024-01-30T03:52:38;2.30;99.90
51867;DHT22;52862;52.504;13.480;2024-01-30T03:55:05;2.40;99.90
51867;DHT22;52862;52.504;13.480;2024-01-30T03:57:32;2.20;99.90
51867;DHT22;52862;52.504;13.480;2024-01-30T03:59:59;2.20;99.90
51867;DHT22;52862;52.504;13.480;2024-01-30T04:02:29;2.20;99.90
51867;DHT22;52862;52.504;13.480;2024-01-30T04:04:56;2.30;99.90
51867;DHT22;52862;52.504;13.480;2024-01-30T04:07:23;2.40;99.90
51867;DHT22;52862;52.504;13.480;2024-01-30T04:09:50;2.40;99.90
51867;DHT22;52862;52.504;13.480;2024-01-30T04:12:17;2.40;99.90
51867;DHT22;52862;52.504;13.480;2024-01-30T04:14:44;2.40;99.90
51867;DHT22;52862;52.504;13.480;2024-01-30T04:19:38;2.40;99.90
51867;DHT22;52862;52.504;13.480;2024-01-30T04:22:05;2.40;99.90
51867;DHT22;52862;52.504;13.480;2024-01-30T04:24:32;2.30;99.90
51867;DHT22;52862;52.504;13.480;2024-01-30T04:26:59;2.50;99.90
51867;DHT22;52862;52.504;13.480;2024-01-30T04:29:26;2.30;99.90
51867;DHT22;52862;52.504;13.480;2024-01-30T04:31:52;2.20;99.90
51867;DHT22;52862;52.504;13.480;2024-01-30T04:34:19;2.30;99.90
51867;DHT22;52862;52.504;13.480;2024-01-30T04:36:46;0.70;99.90
51867;DHT22;52862;52.504;13.480;2024-01-30T04:39:14;2.60;99.90
51867;DHT22;52862;52.504;13.480;2024-01-30T04:44:08;2.30;99.90
51867;DHT22;52862;52.504;13.480;2024-01-30T04:46:34;2.20;99.90
51867;DHT22;52862;52.504;13.480;2024-01-30T04:49:01;2.20;99.90
51867;DHT22;52862;52.504;13.480;2024-01-30T04:51:29;2.30;99.90
51867;DHT22;52862;52.504;13.480;2024-01-30T04:53:56;2.40;99.90
51867;DHT22;52862;52.504;13.480;2024-01-30T04:56:23;2.30;99.90
51867;DHT22;52862;52.504;13.480;2024-01-30T05:01:17;2.40;99.90
51867;DHT22;52862;52.504;13.480;2024-01-30T05:03:44;2.40;99.90
51867;DHT22;52862;52.504;13.480;2024-01-30T05:06:11;2.60;99.90
51867;DHT22;52862;52.504;13.480;2024-01-30T05:08:38;2.30;99.90
51867;DHT22;52862;52.504;13.480;2024-01-30T05:11:05;2.10;99.90
51867;DHT22;52862;52.504;13.480;2024-01-30T05:13:33;2.40;99.90
51867;DHT22;52862;52.504;13.480;2024-01-30T05:16:02;2.40;99.90
51867;DHT22;52862;52.504;13.480;2024-01-30T05:18:29;2.30;99.90
51867;DHT22;52862;52.504;13.480;2024-01-30T05:20:56;2.30;99.90
51867;DHT22;52862;52.504;13.480;2024-01-30T05:23:23;2.30;99.90
51867;DHT22;52862;52.504;13.480;2024-01-30T05:25:49;2.30;99.90
51867;DHT22;52862;52.504;13.480;2024-01-30T05:28:16;2.30;99.90
51867;DHT22;52862;52.504;13.480;2024-01-30T05:30:44;2.30;99.90
51867;DHT22;52862;52.504;13.480;2024-01-30T05:33:11;2.20;99.90
51867;DHT22;52862;52.504;13.480;2024-01-30T05:35:38;1.90;99.90
51867;DHT22;52862;52.504;13.480;2024-01-30T05:38:05;2.30;99.90
51867;DHT22;52862;52.504;13.480;2024-01-30T05:40:32;2.10;99.90
51867;DHT22;52862;52.504;13.480;2024-01-30T05:42:58;2.20;99.90
51867;DHT22;52862;52.504;13.480;2024-01-30T05:45:27;2.20;99.90
51867;DHT22;52862;52.504;13.480;2024-01-30T05:47:56;2.20;99.90
51867;DHT22;52862;52.504;13.480;2024-01-30T05:50:23;2.20;99.90
51867;DHT22;52862;52.504;13.480;2024-01-30T05:52:51;2.10;99.90
51867;DHT22;52862;52.504;13.480;2024-01-30T05:55:18;2.20;99.90
51867;DHT22;52862;52.504;13.480;2024-01-30T05:57:45;2.20;99.90
51867;DHT22;52862;52.504;13.480;2024-01-30T06:00:12;2.20;99.90
51867;DHT22;52862;52.504;13.480;2024-01-30T06:02:39;2.20;99.90
51867;DHT22;52862;52.504;13.480;2024-01-30T06:05:07;2.10;99.90
51867;DHT22;52862;52.504;13.480;2024-01-30T06:07:34;2.20;99.90
51867;DHT22;52862;52.504;13.480;2024-01-30T06:10:04;2.20;99.90
51867;DHT22;52862;52.504;13.480;2024-01-30T06:12:31;2.20;99.90
51867;DHT22;52862;52.504;13.480;2024-01-30T06:15:05;2.20;99.90
51867;DHT22;52862;52.504;13.480;2024-01-30T06:17:34;2.20;99.90
51867;DHT22;52862;52.504;13.480;2024-01-30T06:20:03;2.20;99.90
51867;DHT22;52862;52.504;13.480;2024-01-30T06:22:31;2.20;99.90
51867;DHT22;52862;52.504;13.480;2024-01-30T06:25:01;2.30;99.90
51867;DHT22;52862;52.504;13.480;2024-01-30T06:27:28;2.20;99.90
51867;DHT22;52862;52.504;13.480;2024-01-30T06:29:55;2.20;99.90
51867;DHT22;52862;52.504;13.480;2024-01-30T06:34:49;2.10;99.90
51867;DHT22;52862;52.504;13.480;2024-01-30T06:37:16;2.20;99.90
51867;DHT22;52862;52.504;13.480;2024-01-30T06:39:44;2.20;99.90
51867;DHT22;52862;52.504;13.480;2024-01-30T06:42:11;2.20;99.90
51867;DHT22;52862;52.504;13.480;2024-01-30T06:44:38;2.20;99.90
51867;DHT22;52862;52.504;13.480;2024-01-30T06:47:04;2.20;99.90
51867;DHT22;52862;52.504;13.480;2024-01-30T06:49:31;2.20;99.90
51867;DHT22;52862;52.504;13.480;2024-01-30T06:51:58;2.20;99.90
51867;DHT22;52862;52.504;13.480;2024-01-30T06:54:24;2.20;99.90
51867;DHT22;52862;52.504;13.480;2024-01-30T06:56:52;2.20;99.90
51867;DHT22;52862;52.504;13.480;2024-01-30T06:59:22;2.20;99.90
51867;DHT22;52862;52.504;13.480;2024-01-30T07:01:48;2.30;99.90
51867;DHT22;52862;52.504;13.480;2024-01-30T07:04:15;2.30;99.90
51867;DHT22;52862;52.504;13.480;2024-01-30T07:06:42;2.70;99.90
51867;DHT22;52862;52.504;13.480;2024-01-30T07:09:09;2.30;99.90
51867;DHT22;52862;52.504;13.480;2024-01-30T07:11:36;2.30;99.90
51867;DHT22;52862;52.504;13.480;2024-01-30T07:14:04;2.40;99.90
51867;DHT22;52862;52.504;13.480;2024-01-30T07:16:31;2.40;99.90
51867;DHT22;52862;52.504;13.480;2024-01-30T07:18:58;2.40;99.90
51867;DHT22;52862;52.504;13.480;2024-01-30T07:21:25;2.50;99.90
51867;DHT22;52862;52.504;13.480;2024-01-30T07:23:54;2.50;99.90
51867;DHT22;52862;52.504;13.480;2024-01-30T07:26:21;2.30;99.90
51867;DHT22;52862;52.504;13.480;2024-01-30T07:28:48;2.60;99.90
51867;DHT22;52862;52.504;13.480;2024-01-30T07:31:16;2.60;99.90
51867;DHT22;52862;52.504;13.480;2024-01-30T07:33:46;2.90;99.90
51867;DHT22;52862;52.504;13.480;2024-01-30T07:36:13;2.70;99.90
51867;DHT22;52862;52.504;13.480;2024-01-30T07:38:40;2.70;99.90
51867;DHT22;52862;52.504;13.480;2024-01-30T07:41:07;2.80;99.90
51867;DHT22;52862;52.504;13.480;2024-01-30T07:43:34;2.80;99.90
51867;DHT22;52862;52.504;13.480;2024-01-30T07:46:02;2.90;99.90
51867;DHT22;52862;52.504;13.480;2024-01-30T07:48:29;2.90;99.90
51867;DHT22;52862;52.504;13.480;2024-01-30T07:50:56;3.00;99.90
51867;DHT22;52862;52.504;13.480;2024-01-30T07:53:24;3.10;99.90
51867;DHT22;52862;52.504;13.480;2024-01-30T07:55:51;3.20;99.90
51867;DHT22;52862;52.504;13.480;2024-01-30T07:58:17;3.30;99.90
51867;DHT22;52862;52.504;13.480;2024-01-30T08:00:45;3.20;99.90
51867;DHT22;52862;52.504;13.480;2024-01-30T08:03:12;3.40;99.90
51867;DHT22;52862;52.504;13.480;2024-01-30T08:05:43;3.30;99.90
51867;DHT22;52862;52.504;13.480;2024-01-30T08:08:10;3.40;99.90
51867;DHT22;52862;52.504;13.480;2024-01-30T08:10:37;3.50;99.90
51867;DHT22;52862;52.504;13.480;2024-01-30T08:13:04;3.50;99.90
51867;DHT22;52862;52.504;13.480;2024-01-30T08:15:30;3.60;99.90
51867;DHT22;52862;52.504;13.480;2024-01-30T08:17:57;3.70;99.90
51867;DHT22;52862;52.504;13.480;2024-01-30T08:20:25;3.80;99.90
51867;DHT22;52862;52.504;13.480;2024-01-30T08:22:52;4.30;99.90
51867;DHT22;52862;52.504;13.480;2024-01-30T08:25:19;3.80;99.90
51867;DHT22;52862;52.504;13.480;2024-01-30T08:27:46;3.90;99.90
51867;DHT22;52862;52.504;13.480;2024-01-30T08:30:14;3.90;99.90
51867;DHT22;52862;52.504;13.480;2024-01-30T08:32:41;4.00;99.90
51867;DHT22;52862;52.504;13.480;2024-01-30T08:35:08;3.60;99.90
51867;DHT22;52862;52.504;13.480;2024-01-30T08:37:35;4.10;99.90
51867;DHT22;52862;52.504;13.480;2024-01-30T08:40:04;4.10;99.90
51867;DHT22;52862;52.504;13.480;2024-01-30T08:42:31;4.10;99.90
51867;DHT22;52862;52.504;13.480;2024-01-30T08:44:58;4.20;99.90
51867;DHT22;52862;52.504;13.480;2024-01-30T08:47:25;4.20;99.90
51867;DHT22;52862;52.504;13.480;2024-01-30T08:49:51;4.30;99.90
51867;DHT22;52862;52.504;13.480;2024-01-30T08:52:18;4.50;99.90
51867;DHT22;52862;52.504;13.480;2024-01-30T08:54:45;4.60;99.90
51867;DHT22;52862;52.504;13.480;2024-01-30T08:57:13;4.70;99.90
51867;DHT22;52862;52.504;13.480;2024-01-30T08:59:40;4.80;99.90
51867;DHT22;52862;52.504;13.480;2024-01-30T09:02:06;4.90;99.90
51867;DHT22;52862;52.504;13.480;2024-01-30T09:04:39;5.00;99.90
51867;DHT22;52862;52.504;13.480;2024-01-30T09:07:06;5.20;99.90
51867;DHT22;52862;52.504;13.480;2024-01-30T09:09:35;5.40;99.90
51867;DHT22;52862;52.504;13.480;2024-01-30T09:12:02;5.50;99.90
51867;DHT22;52862;52.504;13.480;2024-01-30T09:14:33;5.60;99.90
51867;DHT22;52862;52.504;13.480;2024-01-30T09:17:00;5.60;99.90
51867;DHT22;52862;52.504;13.480;2024-01-30T09:19:30;5.90;99.90
51867;DHT22;52862;52.504;13.480;2024-01-30T09:21:57;5.80;99.90
51867;DHT22;52862;52.504;13.480;2024-01-30T09:24:24;5.80;99.90
51867;DHT22;52862;52.504;13.480;2024-01-30T09:26:51;5.80;99.90
51867;DHT22;52862;52.504;13.480;2024-01-30T09:29:18;5.90;99.90
51867;DHT22;52862;52.504;13.480;2024-01-30T09:31:45;5.90;99.90
51867;DHT22;52862;52.504;13.480;2024-01-30T09:34:13;6.00;99.90
51867;DHT22;52862;52.504;13.480;2024-01-30T09:36:40;6.00;99.90
51867;DHT22;52862;52.504;13.480;2024-01-30T09:39:07;6.00;99.90
51867;DHT22;52862;52.504;13.480;2024-01-30T09:41:38;6.20;99.90
51867;DHT22;52862;52.504;13.480;2024-01-30T09:44:09;6.00;99.90
51867;DHT22;52862;52.504;13.480;2024-01-30T09:46:38;6.10;99.90
51867;DHT22;52862;52.504;13.480;2024-01-30T09:49:06;6.20;99.90
51867;DHT22;52862;52.504;13.480;2024-01-30T09:51:35;6.40;99.90
51867;DHT22;52862;52.504;13.480;2024-01-30T09:54:02;6.40;99.90
51867;DHT22;52862;52.504;13.480;2024-01-30T09:56:29;6.40;99.90
51867;DHT22;52862;52.504;13.480;2024-01-30T09:58:56;6.50;99.90
51867;DHT22;52862;52.504;13.480;2024-01-30T10:01:23;6.60;99.90
51867;DHT22;52862;52.504;13.480;2024-01-30T10:03:51;6.60;99.90
51867;DHT22;52862;52.504;13.480;2024-01-30T10:06:25;6.70;99.90
51867;DHT22;52862;52.504;13.480;2024-01-30T10:08:53;6.80;99.90
51867;DHT22;52862;52.504;13.480;2024-01-30T10:11:20;6.90;99.90
51867;DHT22;52862;52.504;13.480;2024-01-30T10:13:47;7.00;99.90
51867;DHT22;52862;52.504;13.480;2024-01-30T10:16:14;7.10;99.90
51867;DHT22;52862;52.504;13.480;2024-01-30T10:18:42;7.20;99.90
51867;DHT22;52862;52.504;13.480;2024-01-30T10:21:11;7.20;99.90
51867;DHT22;52862;52.504;13.480;2024-01-30T10:23:39;7.20;99.90
51867;DHT22;52862;52.504;13.480;2024-01-30T10:26:07;7.20;99.90
51867;DHT22;52862;52.504;13.480;2024-01-30T10:28:34;7.10;99.90
51867;DHT22;52862;52.504;13.480;2024-01-30T10:31:02;7.10;99.90
51867;DHT22;52862;52.504;13.480;2024-01-30T10:33:33;7.10;99.90
51867;DHT22;52862;52.504;13.480;2024-01-30T10:36:01;7.40;99.90
51867;DHT22;52862;52.504;13.480;2024-01-30T10:38:29;7.00;99.90
51867;DHT22;52862;52.504;13.480;2024-01-30T10:40:58;6.40;99.90
51867;DHT22;52862;52.504;13.480;2024-01-30T10:43:31;7.10;99.90
51867;DHT22;52862;52.504;13.480;2024-01-30T10:46:06;7.20;99.90
51867;DHT22;52862;52.504;13.480;2024-01-30T10:48:36;7.10;99.90
51867;DHT22;52862;52.504;13.480;2024-01-30T10:51:09;7.10;99.90
51867;DHT22;52862;52.504;13.480;2024-01-30T10:53:38;7.10;99.90
51867;DHT22;52862;52.504;13.480;2024-01-30T10:56:07;7.20;99.90
51867;DHT22;52862;52.504;13.480;2024-01-30T10:58:35;7.40;99.90
51867;DHT22;52862;52.504;13.480;2024-01-30T11:01:02;7.30;99.90
51867;DHT22;52862;52.504;13.480;2024-01-30T11:03:30;7.50;99.90
51867;DHT22;52862;52.504;13.480;2024-01-30T11:06:01;7.50;99.90
51867;DHT22;52862;52.504;13.480;2024-01-30T11:08:31;7.50;99.90
51867;DHT22;52862;52.504;13.480;2024-01-30T11:10:59;7.30;99.90
51867;DHT22;52862;52.504;13.480;2024-01-30T11:13:30;7.80;99.90
51867;DHT22;52862;52.504;13.480;2024-01-30T11:16:00;7.80;99.90
51867;DHT22;52862;52.504;13.480;2024-01-30T11:18:30;7.90;99.90
51867;DHT22;52862;52.504;13.480;2024-01-30T11:20:57;7.90;99.90
51867;DHT22;52862;52.504;13.480;2024-01-30T11:23:26;7.90;99.90
51867;DHT22;52862;52.504;13.480;2024-01-30T11:25:53;7.80;99.90
51867;DHT22;52862;52.504;13.480;2024-01-30T11:28:21;7.90;99.90
51867;DHT22;52862;52.504;13.480;2024-01-30T11:30:49;7.90;99.90
51867;DHT22;52862;52.504;13.480;2024-01-30T11:33:28;8.00;99.90
51867;DHT22;52862;52.504;13.480;2024-01-30T11:36:01;8.10;99.90
51867;DHT22;52862;52.504;13.480;2024-01-30T11:38:28;8.10;99.90
51867;DHT22;52862;52.504;13.480;2024-01-30T11:40:55;7.80;99.90
51867;DHT22;52862;52.504;13.480;2024-01-30T11:43:23;8.20;99.90
51867;DHT22;52862;52.504;13.480;2024-01-30T11:45:50;8.50;99.90
51867;DHT22;52862;52.504;13.480;2024-01-30T11:48:18;8.30;99.90
51867;DHT22;52862;52.504;13.480;2024-01-30T11:50:45;8.30;99.90
51867;DHT22;52862;52.504;13.480;2024-01-30T11:53:12;8.30;99.90
51867;DHT22;52862;52.504;13.480;2024-01-30T11:55:39;8.30;99.90
51867;DHT22;52862;52.504;13.480;2024-01-30T11:58:06;8.30;99.90
51867;DHT22;52862;52.504;13.480;2024-01-30T12:00:33;8.10;99.90
51867;DHT22;52862;52.504;13.480;2024-01-30T12:03:03;8.20;99.90
51867;DHT22;52862;52.504;13.480;2024-01-30T12:05:31;8.40;99.90
51867;DHT22;52862;52.504;13.480;2024-01-30T12:07:58;8.40;99.90
51867;DHT22;52862;52.504;13.480;2024-01-30T12:10:25;8.60;99.90
51867;DHT22;52862;52.504;13.480;2024-01-30T12:12:53;8.60;99.90
51867;DHT22;52862;52.504;13.480;2024-01-30T12:15:21;8.60;99.90
51867;DHT22;52862;52.504;13.480;2024-01-30T12:17:49;8.50;99.90
51867;DHT22;52862;52.504;13.480;2024-01-30T12:20:18;8.40;99.90
51867;DHT22;52862;52.504;13.480;2024-01-30T12:22:48;8.50;99.90
51867;DHT22;52862;52.504;13.480;2024-01-30T12:25:16;8.50;99.90
51867;DHT22;52862;52.504;13.480;2024-01-30T12:27:44;8.50;99.90
51867;DHT22;52862;52.504;13.480;2024-01-30T12:30:12;8.70;99.90
51867;DHT22;52862;52.504;13.480;2024-01-30T12:32:41;8.70;99.90
51867;DHT22;52862;52.504;13.480;2024-01-30T12:35:10;8.50;99.90
51867;DHT22;52862;52.504;13.480;2024-01-30T12:37:37;8.80;99.90
51867;DHT22;52862;52.504;13.480;2024-01-30T12:40:06;9.00;99.90
51867;DHT22;52862;52.504;13.480;2024-01-30T12:42:33;9.00;99.90
51867;DHT22;52862;52.504;13.480;2024-01-30T12:45:01;9.40;99.90
51867;DHT22;52862;52.504;13.480;2024-01-30T12:47:28;9.20;99.90
51867;DHT22;52862;52.504;13.480;2024-01-30T12:49:55;9.30;99.90
51867;DHT22;52862;52.504;13.480;2024-01-30T12:52:22;9.40;99.90
51867;DHT22;52862;52.504;13.480;2024-01-30T12:54:50;9.50;99.90
51867;DHT22;52862;52.504;13.480;2024-01-30T12:57:17;9.50;99.90
51867;DHT22;52862;52.504;13.480;2024-01-30T12:59:45;9.60;99.90
51867;DHT22;52862;52.504;13.480;2024-01-30T13:02:12;9.50;99.90
51867;DHT22;52862;52.504;13.480;2024-01-30T13:04:39;9.70;99.90
51867;DHT22;52862;52.504;13.480;2024-01-30T13:07:06;9.90;99.90
51867;DHT22;52862;52.504;13.480;2024-01-30T13:09:33;10.20;99.90
51867;DHT22;52862;52.504;13.480;2024-01-30T13:12:01;10.20;99.90
51867;DHT22;52862;52.504;13.480;2024-01-30T13:14:28;10.40;99.90
51867;DHT22;52862;52.504;13.480;2024-01-30T13:16:55;10.10;99.90
51867;DHT22;52862;52.504;13.480;2024-01-30T13:19:21;10.60;99.90
51867;DHT22;52862;52.504;13.480;2024-01-30T13:21:48;10.70;99.90
51867;DHT22;52862;52.504;13.480;2024-01-30T13:24:15;10.20;99.90
51867;DHT22;52862;52.504;13.480;2024-01-30T13:26:42;10.80;99.90
51867;DHT22;52862;52.504;13.480;2024-01-30T13:29:10;11.00;99.90
51867;DHT22;52862;52.504;13.480;2024-01-30T13:31:36;10.80;99.90
51867;DHT22;52862;52.504;13.480;2024-01-30T13:34:05;10.90;99.90
51867;DHT22;52862;52.504;13.480;2024-01-30T13:36:35;10.80;99.90
51867;DHT22;52862;52.504;13.480;2024-01-30T13:39:01;10.60;99.90
51867;DHT22;52862;52.504;13.480;2024-01-30T13:41:29;10.30;99.90
51867;DHT22;52862;52.504;13.480;2024-01-30T13:43:56;9.80;99.90
51867;DHT22;52862;52.504;13.480;2024-01-30T13:46:23;10.10;99.90
51867;DHT22;52862;52.504;13.480;2024-01-30T13:48:50;10.00;99.90
51867;DHT22;52862;52.504;13.480;2024-01-30T13:51:17;10.10;99.90
51867;DHT22;52862;52.504;13.480;2024-01-30T13:53:44;10.00;99.90
51867;DHT22;52862;52.504;13.480;2024-01-30T13:56:11;9.70;99.90
51867;DHT22;52862;52.504;13.480;2024-01-30T13:58:38;9.70;99.90
51867;DHT22;52862;52.504;13.480;2024-01-30T14:01:05;9.60;99.90
51867;DHT22;52862;52.504;13.480;2024-01-30T14:03:32;9.40;99.90
51867;DHT22;52862;52.504;13.480;2024-01-30T14:05:59;9.40;99.90
51867;DHT22;52862;52.504;13.480;2024-01-30T14:08:26;9.40;99.90
51867;DHT22;52862;52.504;13.480;2024-01-30T14:10:54;9.40;99.90
51867;DHT22;52862;52.504;13.480;2024-01-30T14:13:21;9.60;99.90
51867;DHT22;52862;52.504;13.480;2024-01-30T14:15:49;10.20;99.90
51867;DHT22;52862;52.504;13.480;2024-01-30T14:18:15;9.10;99.90
51867;DHT22;52862;52.504;13.480;2024-01-30T14:20:43;9.70;99.90
51867;DHT22;52862;52.504;13.480;2024-01-30T14:23:10;9.70;99.90
51867;DHT22;52862;52.504;13.480;2024-01-30T14:25:37;9.70;99.90
51867;DHT22;52862;52.504;13.480;2024-01-30T14:28:04;9.60;99.90
51867;DHT22;52862;52.504;13.480;2024-01-30T14:30:33;9.60;99.90
51867;DHT22;52862;52.504;13.480;2024-01-30T14:33:01;9.60;99.90
51867;DHT22;52862;52.504;13.480;2024-01-30T14:35:28;9.30;99.90
51867;DHT22;52862;52.504;13.480;2024-01-30T14:37:55;9.80;99.90
51867;DHT22;52862;52.504;13.480;2024-01-30T14:40:22;9.50;99.90
51867;DHT22;52862;52.504;13.480;2024-01-30T14:42:49;9.40;99.90
51867;DHT22;52862;52.504;13.480;2024-01-30T14:45:16;9.30;99.90
51867;DHT22;52862;52.504;13.480;2024-01-30T14:47:43;9.30;99.90
51867;DHT22;52862;52.504;13.480;2024-01-30T14:50:10;9.30;99.90
51867;DHT22;52862;52.504;13.480;2024-01-30T14:52:37;9.30;99.90
51867;DHT22;52862;52.504;13.480;2024-01-30T14:55:07;9.20;99.90
51867;DHT22;52862;52.504;13.480;2024-01-30T14:57:34;9.10;99.90
51867;DHT22;52862;52.504;13.480;2024-01-30T15:00:01;9.10;99.90
51867;DHT22;52862;52.504;13.480;2024-01-30T15:02:29;8.90;99.90
51867;DHT22;52862;52.504;13.480;2024-01-30T15:04:56;9.00;99.90
51867;DHT22;52862;52.504;13.480;2024-01-30T15:07:23;8.80;99.90
51867;DHT22;52862;52.504;13.480;2024-01-30T15:10:02;8.80;99.90
51867;DHT22;52862;52.504;13.480;2024-01-30T15:12:31;8.90;99.90
51867;DHT22;52862;52.504;13.480;2024-01-30T15:14:58;8.70;99.90
51867;DHT22;52862;52.504;13.480;2024-01-30T15:17:24;8.90;99.90
51867;DHT22;52862;52.504;13.480;2024-01-30T15:19:51;8.70;99.90
51867;DHT22;52862;52.504;13.480;2024-01-30T15:22:18;8.60;99.90
51867;DHT22;52862;52.504;13.480;2024-01-30T15:24:45;8.50;99.90
51867;DHT22;52862;52.504;13.480;2024-01-30T15:27:12;8.50;99.90
51867;DHT22;52862;52.504;13.480;2024-01-30T15:29:39;8.50;99.90
51867;DHT22;52862;52.504;13.480;2024-01-30T15:32:06;8.50;99.90
51867;DHT22;52862;52.504;13.480;2024-01-30T15:34:33;8.40;99.90
51867;DHT22;52862;52.504;13.480;2024-01-30T15:37:00;8.40;99.90
51867;DHT22;52862;52.504;13.480;2024-01-30T15:39:27;7.80;99.90
51867;DHT22;52862;52.504;13.480;2024-01-30T15:41:56;8.30;99.90
51867;DHT22;52862;52.504;13.480;2024-01-30T15:44:24;8.30;99.90
51867;DHT22;52862;52.504;13.480;2024-01-30T15:46:52;8.30;99.90
51867;DHT22;52862;52.504;13.480;2024-01-30T15:49:19;8.30;99.90